Time;durP1;ratioP1;P1;durP2;ratioP2;P2;SDS_P1;SDS_P2;PMS_P1;PMS_P2;Temp;Humidity;BMP_temperature;BMP_pressure;BME280_temperature;BME280_humidity;BME280_pressure;Samples;Min_cycle;Max_cycle;Signal;HPM_P1;HPM_P2
2022/07/03 10:52:31;;;;;;;0.70;0.35;;;;;;;-145.06;100.00;60892.56;6094058;22;20506;-91
2022/07/03 10:59:26;;;;;;;;;;;;;;;;;;;;;
2022/07/03 11:17:21;;;;;;;0.38;0.20;;;;;;;-145.06;100.00;60892.56;6070054;22;20012;-90
2022/07/03 11:58:59;;;;;;;0.65;0.32;;;;;;;-145.06;100.00;60892.56;6117452;22;20010;-92
2022/07/03 12:05:28;;;;;;;0.65;0.20;;;;;;;-145.06;100.00;60892.56;6107626;22;20374;-93
2022/07/03 12:08:59;;;;;;;0.90;0.20;;;;;;;-145.06;100.00;60892.56;6066689;22;20310;-90
2022/07/03 12:12:23;;;;;;;0.10;0.10;;;;;;;-145.06;100.00;60892.56;6066482;22;20003;-90
2022/07/03 12:53:29;;;;;;;0.20;0.20;;;;;;;-145.06;100.00;60892.56;6098243;22;20034;-91
2022/07/03 13:17:37;;;;;;;;;;;;;;;;;;;;;
2022/07/03 13:34:26;;;;;;;0.35;0.22;;;;;;;-145.06;100.00;60892.56;6094666;22;20034;-92
2022/07/03 13:44:47;;;;;;;;;;;;;;;;;;;;;
2022/07/03 13:48:06;;;;;;;0.32;0.22;;;;;;;-145.06;100.00;60892.56;5784471;24;20008;-94
2022/07/03 13:51:07;;;;;;;1.05;0.20;;;;;;;-145.06;100.00;60892.56;5769705;23;20034;-93
2022/07/03 17:34:52;;;;;;;;;;;;;;;;;;;;;
2022/07/03 17:41:34;;;;;;;0.10;0.10;;;;;;;-145.06;100.00;60892.56;5976077;23;20693;-93
2022/07/03 17:52:59;;;;;;;0.25;0.20;;;;;;;-145.06;100.00;60892.56;5881543;23;20029;-92
2022/07/03 18:49:57;;;;;;;1.05;0.32;;;;;;;-145.06;100.00;60892.56;5943993;23;20084;-90
2022/07/03 18:56:44;;;;;;;0.63;0.20;;;;;;;-145.06;100.00;60892.56;6058233;22;20003;-91
2022/07/03 19:04:09;;;;;;;;;;;;;;;;;;;;;
2022/07/03 19:11:21;;;;;;;;;;;;;;;;;;;;;
2022/07/03 19:18:41;;;;;;;;;;;;;;;;;;;;;
2022/07/03 20:20:50;;;;;;;0.32;0.15;;;;;;;-145.06;100.00;60892.56;6114398;22;20019;-89
2022/07/03 20:24:30;;;;;;;0.73;0.30;;;;;;;-145.06;100.00;60892.56;6092276;22;20002;-91
2022/07/03 20:26:42;;;;;;;0.47;0.30;;;;;;;-145.06;100.00;60892.56;6116844;22;20010;-92
2022/07/03 20:29:26;;;;;;;0.70;0.20;;;;;;;-145.06;100.00;60892.56;6092804;22;19999;-90
2022/07/03 20:32:09;;;;;;;0.65;0.20;;;;;;;-145.06;100.00;60892.56;6092972;22;20007;-91
2022/07/03 20:34:51;;;;;;;0.40;0.28;;;;;;;-145.06;100.00;60892.56;6093071;22;20094;-92
2022/07/03 20:37:31;;;;;;;0.40;0.25;;;;;;;-145.06;100.00;60892.56;6092140;22;20420;-91
2022/07/03 20:40:12;;;;;;;0.17;0.17;;;;;;;-145.06;100.00;60892.56;6126734;22;20034;-91
2022/07/03 20:43:09;;;;;;;0.30;0.20;;;;;;;-145.06;100.00;60892.56;6093090;22;20006;-92
2022/07/03 20:45:53;;;;;;;0.40;0.20;;;;;;;-145.06;100.00;60892.56;6092722;22;20032;-91
2022/07/03 20:48:32;;;;;;;0.43;0.20;;;;;;;-145.06;100.00;60892.56;6092749;22;20026;-91
2022/07/03 20:51:17;;;;;;;0.88;0.30;;;;;;;-145.06;100.00;60892.56;6092641;22;20011;-91
2022/07/03 20:54:00;;;;;;;0.17;0.17;;;;;;;-145.06;100.00;60892.56;6093122;22;20011;-91
2022/07/03 20:56:46;;;;;;;0.43;0.20;;;;;;;-145.06;100.00;60892.56;6093601;22;20002;-92
2022/07/03 20:59:35;;;;;;;0.50;0.30;;;;;;;-145.06;100.00;60892.56;6094894;22;20003;-89
2022/07/03 21:02:28;;;;;;;0.20;0.20;;;;;;;-145.06;100.00;60892.56;6094457;22;20010;-90
2022/07/03 21:05:10;;;;;;;0.25;0.20;;;;;;;-145.06;100.00;60892.56;6094046;22;20002;-90
2022/07/03 21:07:57;;;;;;;0.35;0.20;;;;;;;-145.06;100.00;60892.56;6094844;22;19999;-91
2022/07/03 21:13:34;;;;;;;1.05;0.13;;;;;;;-145.06;100.00;60892.56;6151072;22;19999;-92
2022/07/03 21:16:16;;;;;;;0.35;0.10;;;;;;;-145.06;100.00;60892.56;6113785;22;20034;-90
2022/07/03 21:19:05;;;;;;;0.45;0.20;;;;;;;-145.06;100.00;60892.56;6093947;22;20369;-90
2022/07/03 21:21:49;;;;;;;1.10;0.20;;;;;;;-145.06;100.00;60892.56;6093675;22;20011;-90
2022/07/03 21:24:28;;;;;;;0.63;0.22;;;;;;;-145.06;100.00;60892.56;6092674;22;20079;-90
2022/07/03 21:27:17;;;;;;;0.05;0.05;;;;;;;-145.06;100.00;60892.56;6090959;22;20007;-92
2022/07/03 21:30:02;;;;;;;0.20;0.10;;;;;;;-145.06;100.00;60892.56;6091640;22;20011;-90
2022/07/03 21:32:46;;;;;;;1.65;0.20;;;;;;;-145.06;100.00;60892.56;6092131;22;20006;-91
2022/07/03 21:35:27;;;;;;;0.10;0.10;;;;;;;-145.06;100.00;60892.56;6090936;22;20007;-91
2022/07/03 21:38:16;;;;;;;0.25;0.17;;;;;;;-145.06;100.00;60892.56;6090738;22;20030;-90
2022/07/03 21:41:05;;;;;;;0.20;0.20;;;;;;;-145.06;100.00;60892.56;6091092;22;20596;-91
2022/07/03 21:43:45;;;;;;;0.55;0.10;;;;;;;-145.06;100.00;60892.56;6091832;22;20011;-94
2022/07/03 21:46:25;;;;;;;0.40;0.20;;;;;;;-145.06;100.00;60892.56;6090888;22;20003;-90
2022/07/03 21:49:12;;;;;;;0.20;0.20;;;;;;;-145.06;100.00;60892.56;6091143;22;20003;-92
2022/07/03 21:52:29;;;;;;;0.10;0.10;;;;;;;-145.06;100.00;60892.56;6091339;22;20279;-92
2022/07/03 21:55:14;;;;;;;0.17;0.15;;;;;;;-145.06;100.00;60892.56;6090972;22;20370;-90
2022/07/03 21:58:02;;;;;;;0.20;0.20;;;;;;;-145.06;100.00;60892.56;6090658;22;20516;-92
2022/07/03 22:00:44;;;;;;;0.40;0.20;;;;;;;-145.06;100.00;60892.56;6090987;22;20003;-91
2022/07/03 22:03:36;;;;;;;0.60;0.20;;;;;;;-145.06;100.00;60892.56;6090438;22;20015;-90
2022/07/03 22:06:43;;;;;;;0.73;0.20;;;;;;;-145.06;100.00;60892.56;6090656;22;20030;-91
2022/07/03 22:09:50;;;;;;;0.10;0.10;;;;;;;-145.06;100.00;60892.56;6092068;22;20002;-90
2022/07/03 22:12:36;;;;;;;0.10;0.10;;;;;;;-145.06;100.00;60892.56;6091408;22;20298;-90
2022/07/03 22:15:25;;;;;;;0.20;0.10;;;;;;;-145.06;100.00;60892.56;6092195;22;20003;-91
2022/07/03 22:18:12;;;;;;;0.30;0.20;;;;;;;-145.06;100.00;60892.56;6093843;22;20003;-91
2022/07/03 22:21:03;;;;;;;0.30;0.20;;;;;;;-145.06;100.00;60892.56;6093869;22;20011;-91
2022/07/03 22:23:48;;;;;;;0.45;0.28;;;;;;;-145.06;100.00;60892.56;6094322;22;20006;-91
2022/07/03 22:26:31;;;;;;;0.55;0.20;;;;;;;-145.06;100.00;60892.56;6094515;22;20003;-92
2022/07/03 22:29:13;;;;;;;0.20;0.20;;;;;;;-145.06;100.00;60892.56;6093663;22;19998;-91
2022/07/03 22:31:56;;;;;;;0.45;0.22;;;;;;;-145.06;100.00;60892.56;6094282;22;20006;-91
2022/07/03 22:34:40;;;;;;;0.25;0.25;;;;;;;-145.06;100.00;60892.56;6093744;22;20026;-91
2022/07/03 22:37:25;;;;;;;0.30;0.20;;;;;;;-145.06;100.00;60892.56;6094017;22;20298;-91
2022/07/03 22:40:05;;;;;;;0.10;0.10;;;;;;;-145.06;100.00;60892.56;6094265;22;20007;-90
2022/07/03 22:42:52;;;;;;;0.10;0.10;;;;;;;-145.06;100.00;60892.56;6127964;22;20002;-90
2022/07/03 22:45:33;;;;;;;0.45;0.20;;;;;;;-145.06;100.00;60892.56;6093497;22;20003;-90
2022/07/03 22:48:15;;;;;;;0.20;0.20;;;;;;;-145.06;100.00;60892.56;6093654;22;20535;-91
2022/07/03 22:51:09;;;;;;;0.32;0.20;;;;;;;-145.06;100.00;60892.56;6093895;22;20007;-91
2022/07/03 22:53:57;;;;;;;0.10;0.10;;;;;;;-145.06;100.00;60892.56;6063454;22;20007;-90
2022/07/03 22:56:47;;;;;;;0.40;0.22;;;;;;;-145.06;100.00;60892.56;6063887;22;20078;-90
2022/07/03 22:59:40;;;;;;;0.47;0.20;;;;;;;-145.06;100.00;60892.56;6064537;22;20007;-91
2022/07/03 23:02:23;;;;;;;0.20;0.20;;;;;;;-145.06;100.00;60892.56;6064294;22;20008;-90
2022/07/03 23:05:23;;;;;;;0.80;0.20;;;;;;;-145.06;100.00;60892.56;6063668;22;20007;-92
2022/07/03 23:08:07;;;;;;;;;;;;;;;-145.06;100.00;60892.56;6097998;22;20637;-90
2022/07/03 23:10:49;;;;;;;0.52;0.10;;;;;;;-145.06;100.00;60892.56;6064649;22;20349;-89
2022/07/03 23:13:37;;;;;;;0.20;0.20;;;;;;;-145.06;100.00;60892.56;6064880;22;20382;-91
2022/07/03 23:16:27;;;;;;;0.20;0.20;;;;;;;-145.06;100.00;60892.56;6063996;22;20003;-90
2022/07/03 23:19:16;;;;;;;0.20;0.20;;;;;;;-145.06;100.00;60892.56;6064551;22;20330;-90
2022/07/03 23:21:59;;;;;;;0.63;0.20;;;;;;;-145.06;100.00;60892.56;6064564;22;20007;-90
2022/07/03 23:24:38;;;;;;;0.43;0.38;;;;;;;-145.06;100.00;60892.56;6064454;22;20007;-91
2022/07/03 23:27:26;;;;;;;0.20;0.20;;;;;;;-145.06;100.00;60892.56;6064760;22;19999;-91
2022/07/03 23:30:19;;;;;;;0.20;0.20;;;;;;;-145.06;100.00;60892.56;6064221;22;20031;-90
2022/07/03 23:33:03;;;;;;;0.17;0.17;;;;;;;-145.06;100.00;60892.56;6064674;22;20003;-90
2022/07/03 23:35:50;;;;;;;0.35;0.25;;;;;;;-145.06;100.00;60892.56;6064155;22;20475;-91
2022/07/03 23:38:42;;;;;;;0.38;0.30;;;;;;;-145.06;100.00;60892.56;6064532;22;20007;-90
2022/07/03 23:41:34;;;;;;;0.20;0.20;;;;;;;-145.06;100.00;60892.56;6064435;22;20033;-91
2022/07/03 23:44:26;;;;;;;0.20;0.20;;;;;;;-145.06;100.00;60892.56;6063904;22;20378;-91
2022/07/03 23:47:22;;;;;;;0.40;0.20;;;;;;;-145.06;100.00;60892.56;6064118;22;20294;-92
2022/07/03 23:53:33;;;;;;;0.43;0.30;;;;;;;-145.06;100.00;60892.56;6097828;22;20003;-91
2022/07/03 23:56:21;;;;;;;0.40;0.30;;;;;;;-145.06;100.00;60892.56;6064396;22;20378;-91
2022/07/03 23:59:22;;;;;;;0.60;0.30;;;;;;;-145.06;100.00;60892.56;6064350;22;20003;-91
